createdAt,value
2022-12-22T00:01:35.983Z,62.97
2022-12-22T00:04:59.306Z,79.33
2022-12-22T00:08:19.631Z,61.13
2022-12-22T00:11:40.163Z,57.53
2022-12-22T00:15:00.968Z,60.50
2022-12-22T00:18:21.824Z,54.50
2022-12-22T00:21:42.086Z,50.60
2022-12-22T00:25:02.521Z,71.13
2022-12-22T00:28:29.411Z,64.93
2022-12-22T00:31:49.460Z,54.03
2022-12-22T00:35:10.162Z,60.20
2022-12-22T00:38:35.208Z,48.40
2022-12-22T00:41:55.328Z,38.13
2022-12-22T00:45:15.581Z,36.83
2022-12-22T00:48:41.180Z,39.13
2022-12-22T00:52:01.471Z,38.13
2022-12-22T00:55:22.631Z,46.80
2022-12-22T00:58:42.909Z,44.60
2022-12-22T01:02:03.559Z,38.07
2022-12-22T01:05:23.848Z,42.53
2022-12-22T01:08:44.231Z,40.27
2022-12-22T01:12:04.552Z,42.70
2022-12-22T01:15:28.786Z,39.73
2022-12-22T01:18:48.956Z,35.63
2022-12-22T01:22:08.975Z,35.40
2022-12-22T01:25:30.713Z,31.73
2022-12-22T01:28:51.045Z,30.40
2022-12-22T01:32:11.523Z,29.73
2022-12-22T01:35:45.277Z,35.70
2022-12-22T01:39:05.519Z,32.77
2022-12-22T01:42:28.800Z,30.47
2022-12-22T01:45:50.762Z,25.50
2022-12-22T01:49:11.175Z,19.77
2022-12-22T01:52:32.168Z,24.90
2022-12-22T01:55:52.610Z,25.50
2022-12-22T01:59:14.483Z,31.40
2022-12-22T02:02:35.752Z,31.30
2022-12-22T02:05:58.650Z,50.23
2022-12-22T02:09:35.951Z,28.53
2022-12-22T02:13:12.759Z,24.97
2022-12-22T02:16:36.028Z,26.53
2022-12-22T02:19:59.445Z,22.93
2022-12-22T02:23:37.870Z,29.00
2022-12-22T02:27:01.112Z,29.33
2022-12-22T02:30:23.214Z,25.13
2022-12-22T02:33:43.480Z,23.83
2022-12-22T02:37:18.519Z,25.77
2022-12-22T02:40:50.929Z,20.63
2022-12-22T02:44:11.256Z,23.40
2022-12-22T02:47:54.078Z,21.63
2022-12-22T02:51:17.912Z,29.60
2022-12-22T02:54:39.057Z,31.30
2022-12-22T02:57:59.329Z,25.40
2022-12-22T03:01:20.725Z,23.67
2022-12-22T03:04:41.063Z,17.83
2022-12-22T03:08:07.689Z,23.07
2022-12-22T03:11:28.607Z,25.37
2022-12-22T03:14:48.915Z,25.33
2022-12-22T03:18:09.311Z,27.30
2022-12-22T03:21:29.713Z,24.83
2022-12-22T03:24:49.935Z,29.57
2022-12-22T03:27:51.604Z,23.27
2022-12-22T03:31:00.917Z,21.10
2022-12-22T03:34:02.643Z,21.20
2022-12-22T03:37:04.209Z,22.53
2022-12-22T03:40:06.195Z,20.07
2022-12-22T03:43:28.566Z,17.67
2022-12-22T03:46:33.276Z,20.73
2022-12-22T03:49:34.994Z,20.63
2022-12-22T03:52:36.580Z,20.37
2022-12-22T03:55:38.166Z,27.73
2022-12-22T03:58:39.736Z,32.17
2022-12-22T04:01:46.033Z,23.77
2022-12-22T04:04:47.995Z,30.60
2022-12-22T04:07:49.684Z,30.90
2022-12-22T04:11:09.811Z,33.20
2022-12-22T04:14:11.379Z,27.73
2022-12-22T04:17:12.953Z,30.47
2022-12-22T04:20:18.097Z,27.20
2022-12-22T04:23:19.790Z,27.60
2022-12-22T04:26:25.205Z,23.07
2022-12-22T04:29:27.455Z,25.20
2022-12-22T04:32:29.335Z,33.67
2022-12-22T04:35:30.964Z,44.93
2022-12-22T04:38:32.563Z,37.17
2022-12-22T04:41:34.200Z,36.87
2022-12-22T04:44:35.870Z,36.77
2022-12-22T04:47:37.525Z,32.47
2022-12-22T04:50:39.201Z,31.37
2022-12-22T04:53:40.839Z,30.77
2022-12-22T04:56:42.515Z,29.30
2022-12-22T04:59:44.189Z,31.23
2022-12-22T05:02:45.942Z,26.10
2022-12-22T05:05:47.674Z,27.97
2022-12-22T05:08:49.279Z,26.33
2022-12-22T05:11:50.889Z,29.43
2022-12-22T05:14:52.971Z,32.97
2022-12-22T05:17:54.931Z,52.93
2022-12-22T05:20:56.627Z,42.30
2022-12-22T05:23:58.231Z,37.87
2022-12-22T05:26:59.962Z,39.60
2022-12-22T05:30:01.701Z,44.87
2022-12-22T05:33:03.461Z,46.73
2022-12-22T05:36:05.241Z,38.83
2022-12-22T05:39:08.064Z,50.00
2022-12-22T05:42:09.689Z,49.60
2022-12-22T05:45:18.628Z,46.73
2022-12-22T05:48:27.394Z,50.77
2022-12-22T05:51:31.281Z,47.77
2022-12-22T05:54:32.871Z,41.53
2022-12-22T05:57:34.948Z,48.57
2022-12-22T06:00:36.598Z,58.27
2022-12-22T06:03:38.378Z,83.83
2022-12-22T06:06:40.185Z,59.27
2022-12-22T06:09:42.184Z,71.83
2022-12-22T06:12:44.175Z,55.10
2022-12-22T06:15:45.878Z,45.07
2022-12-22T06:18:48.211Z,28.23
2022-12-22T06:21:49.977Z,25.93
2022-12-22T06:24:51.750Z,48.70
2022-12-22T06:27:53.385Z,60.63
2022-12-22T06:30:55.295Z,71.70
2022-12-22T06:33:56.993Z,53.07
2022-12-22T06:36:58.644Z,41.40
2022-12-22T06:40:00.273Z,35.23
2022-12-22T06:43:11.249Z,28.63
2022-12-22T06:46:12.947Z,25.10
2022-12-22T06:49:14.681Z,21.60
2022-12-22T06:52:16.308Z,20.90
2022-12-22T06:55:17.905Z,22.37
2022-12-22T06:58:19.478Z,20.93
2022-12-22T07:01:21.268Z,20.63
2022-12-22T07:04:23.065Z,23.53
2022-12-22T07:07:24.880Z,35.47
2022-12-22T07:10:45.015Z,44.53
2022-12-22T07:13:46.910Z,66.30
2022-12-22T07:16:48.704Z,65.13
2022-12-22T07:19:50.332Z,62.20
2022-12-22T07:22:51.907Z,46.27
2022-12-22T07:25:53.538Z,54.03
2022-12-22T07:28:55.164Z,45.57
2022-12-22T07:31:57.017Z,68.43
2022-12-22T07:35:04.877Z,63.00
2022-12-22T07:38:07.330Z,62.83
2022-12-22T07:41:28.463Z,56.63
2022-12-22T07:44:30.061Z,51.00
2022-12-22T07:47:35.248Z,63.67
2022-12-22T07:50:37.227Z,57.83
2022-12-22T07:53:39.857Z,54.40
2022-12-22T07:56:41.939Z,51.47
2022-12-22T07:59:43.526Z,307.67
2022-12-22T08:02:55.538Z,297.93
2022-12-22T08:05:57.307Z,252.67
2022-12-22T08:08:58.930Z,83.53
2022-12-22T08:12:00.590Z,49.53
2022-12-22T08:15:02.687Z,47.07
2022-12-22T08:18:04.481Z,49.90
2022-12-22T08:21:07.244Z,64.47
2022-12-22T08:24:08.963Z,89.57
2022-12-22T08:27:20.738Z,49.77
2022-12-22T08:30:27.341Z,76.63
2022-12-22T08:33:28.966Z,85.67
2022-12-22T08:36:31.842Z,61.23
2022-12-22T08:39:35.908Z,57.40
2022-12-22T08:42:37.887Z,59.60
2022-12-22T08:45:40.006Z,53.03
2022-12-22T08:48:41.661Z,51.40
2022-12-22T08:51:43.662Z,57.30
2022-12-22T08:54:45.326Z,51.60
2022-12-22T08:57:55.884Z,56.07
2022-12-22T09:00:57.965Z,75.43
2022-12-22T09:03:59.656Z,71.23
2022-12-22T09:07:02.735Z,78.33
2022-12-22T09:10:04.492Z,70.30
2022-12-22T09:13:06.165Z,68.53
2022-12-22T09:16:08.413Z,68.10
2022-12-22T09:19:11.264Z,54.50
2022-12-22T09:22:13.012Z,55.00
2022-12-22T09:25:14.762Z,54.43
2022-12-22T09:28:16.374Z,50.13
2022-12-22T09:31:19.093Z,45.33
2022-12-22T09:34:20.852Z,48.07
2022-12-22T09:37:22.521Z,59.40
2022-12-22T09:40:24.847Z,59.60
2022-12-22T09:43:28.257Z,69.83
2022-12-22T09:46:31.687Z,57.73
2022-12-22T09:49:33.397Z,67.50
2022-12-22T09:52:34.940Z,58.33
2022-12-22T09:55:42.587Z,56.87
2022-12-22T09:58:44.485Z,54.60
2022-12-22T10:01:58.970Z,71.60
2022-12-22T10:05:06.732Z,66.70
2022-12-22T10:08:12.777Z,64.43
2022-12-22T10:11:16.176Z,65.53
2022-12-22T10:14:17.844Z,55.83
2022-12-22T10:17:21.438Z,55.00
2022-12-22T10:20:25.469Z,42.10
2022-12-22T10:23:29.484Z,50.23
2022-12-22T10:26:33.459Z,33.07
2022-12-22T10:29:35.489Z,48.13
2022-12-22T10:32:37.057Z,36.87
2022-12-22T10:35:46.795Z,28.57
2022-12-22T10:38:54.480Z,33.23
2022-12-22T10:42:16.301Z,33.00
2022-12-22T10:45:19.688Z,29.80
2022-12-22T10:48:28.573Z,27.73
2022-12-22T10:51:30.185Z,27.07
2022-12-22T10:54:33.139Z,25.37
2022-12-22T10:57:34.758Z,36.73
2022-12-22T11:00:37.433Z,44.07
2022-12-22T11:03:39.151Z,43.67
2022-12-22T11:06:42.998Z,37.53
2022-12-22T11:09:44.620Z,29.53
2022-12-22T11:12:49.075Z,27.70
2022-12-22T11:16:23.242Z,26.07
2022-12-22T11:19:42.900Z,34.70
2022-12-22T11:23:04.821Z,27.70
2022-12-22T11:26:09.712Z,21.23
2022-12-22T11:29:11.357Z,19.57
2022-12-22T11:32:31.833Z,22.07
2022-12-22T11:35:45.717Z,60.33
2022-12-22T11:38:57.156Z,20.83
2022-12-22T11:42:17.568Z,15.80
2022-12-22T11:45:43.067Z,11.60
2022-12-22T11:48:45.223Z,15.23
2022-12-22T11:51:56.499Z,14.47
2022-12-22T11:55:16.875Z,19.60
2022-12-22T11:58:24.426Z,25.03
2022-12-22T12:01:35.226Z,18.73
2022-12-22T12:04:50.123Z,19.47
2022-12-22T12:07:57.038Z,19.70
2022-12-22T12:11:18.989Z,18.80
2022-12-22T12:14:20.641Z,13.97
2022-12-22T12:17:22.243Z,13.67
2022-12-22T12:20:26.840Z,17.63
2022-12-22T12:24:04.045Z,16.23
2022-12-22T12:27:14.722Z,14.13
2022-12-22T12:33:41.117Z,16.07
2022-12-22T12:36:46.306Z,12.97
2022-12-22T12:39:51.005Z,16.13
2022-12-22T12:42:53.048Z,14.67
2022-12-22T12:45:55.468Z,14.63
2022-12-22T12:48:57.099Z,19.93
2022-12-22T12:51:58.690Z,12.60
2022-12-22T12:55:22.354Z,13.70
2022-12-22T12:58:38.086Z,13.07
2022-12-22T13:01:39.767Z,21.30
2022-12-22T13:05:02.149Z,15.50
2022-12-22T13:08:06.839Z,23.40
2022-12-22T13:11:08.596Z,26.53
2022-12-22T13:14:10.588Z,22.80
2022-12-22T13:17:31.147Z,29.77
2022-12-22T13:20:34.966Z,23.60
2022-12-22T13:24:06.171Z,37.57
2022-12-22T13:27:05.435Z,20.60
2022-12-22T13:30:13.191Z,25.83
2022-12-22T13:33:17.563Z,30.10
2022-12-22T13:36:20.424Z,34.17
2022-12-22T13:39:22.085Z,33.47
2022-12-22T13:42:23.747Z,35.63
2022-12-22T13:45:33.672Z,39.80
2022-12-22T13:48:44.749Z,36.53
2022-12-22T13:51:48.016Z,49.50
2022-12-22T13:54:49.911Z,39.00
2022-12-22T13:57:58.326Z,48.37
2022-12-22T14:01:10.133Z,39.93
2022-12-22T14:04:13.188Z,41.50
2022-12-22T14:07:16.087Z,47.80
2022-12-22T14:10:25.560Z,57.27
2022-12-22T14:13:30.457Z,49.00
2022-12-22T14:16:32.198Z,54.23
2022-12-22T14:19:34.948Z,57.40
2022-12-22T14:22:38.736Z,38.60
2022-12-22T14:25:42.009Z,41.87
2022-12-22T14:28:50.337Z,40.23
2022-12-22T14:31:55.907Z,47.73
2022-12-22T14:34:58.007Z,39.20
2022-12-22T14:38:02.540Z,67.33
2022-12-22T14:41:09.663Z,141.70
2022-12-22T14:44:16.516Z,133.80
2022-12-22T14:47:27.018Z,108.50
2022-12-22T14:50:29.490Z,113.43
2022-12-22T14:53:57.039Z,111.83
2022-12-22T14:57:02.243Z,109.10
2022-12-22T15:00:09.635Z,126.70
2022-12-22T15:03:30.268Z,147.03
2022-12-22T15:06:37.058Z,140.83
2022-12-22T15:10:13.953Z,120.97
2022-12-22T15:13:03.484Z,140.57
2022-12-22T15:16:05.447Z,135.97
2022-12-22T15:19:07.168Z,138.97
2022-12-22T15:22:08.879Z,113.97
2022-12-22T15:25:14.921Z,127.07
2022-12-22T15:28:19.042Z,113.57
2022-12-22T15:31:20.688Z,135.00
2022-12-22T15:34:24.263Z,124.00
2022-12-22T15:37:25.871Z,125.27
2022-12-22T15:40:28.337Z,121.03
2022-12-22T15:43:56.634Z,97.93
2022-12-22T15:46:55.033Z,103.77
2022-12-22T15:49:56.724Z,104.00
2022-12-22T15:52:59.071Z,105.97
2022-12-22T15:56:01.094Z,92.30
2022-12-22T15:59:02.752Z,93.30
2022-12-22T16:02:09.961Z,102.90
2022-12-22T16:05:12.182Z,113.67
2022-12-22T16:08:18.615Z,123.03
2022-12-22T16:11:20.343Z,108.53
2022-12-22T16:14:22.294Z,150.87
2022-12-22T16:17:24.863Z,131.23
2022-12-22T16:20:30.620Z,108.10
2022-12-22T16:23:35.979Z,99.53
2022-12-22T16:26:37.657Z,108.77
2022-12-22T16:29:50.593Z,89.83
2022-12-22T16:32:52.593Z,98.53
2022-12-22T16:35:54.251Z,67.80
2022-12-22T16:38:55.931Z,48.90
2022-12-22T16:41:59.882Z,66.87
2022-12-22T16:45:05.152Z,74.73
2022-12-22T16:48:10.064Z,57.07
2022-12-22T16:51:16.932Z,57.90
2022-12-22T16:54:18.624Z,64.83
2022-12-22T16:57:20.365Z,72.63
2022-12-22T17:00:23.210Z,66.53
2022-12-22T17:03:25.933Z,79.90
2022-12-22T17:06:27.910Z,80.53
2022-12-22T17:09:52.887Z,51.17
2022-12-22T17:12:56.032Z,59.83
2022-12-22T17:15:57.945Z,72.50
2022-12-22T17:18:59.761Z,86.00
2022-12-22T17:22:04.554Z,72.47
2022-12-22T17:25:07.956Z,75.47
2022-12-22T17:28:13.061Z,80.70
2022-12-22T17:31:16.408Z,76.37
2022-12-22T17:34:18.953Z,58.87
2022-12-22T17:37:22.902Z,78.03
2022-12-22T17:40:30.516Z,62.90
2022-12-22T17:43:35.645Z,76.47
2022-12-22T17:46:37.435Z,67.93
2022-12-22T17:49:39.056Z,73.03
2022-12-22T17:52:41.309Z,81.53
2022-12-22T17:59:04.717Z,63.70
2022-12-22T18:02:06.500Z,65.93
2022-12-22T18:05:11.977Z,69.23
2022-12-22T18:08:16.122Z,48.03
2022-12-22T18:11:18.347Z,47.00
2022-12-22T18:14:26.036Z,58.57
2022-12-22T18:17:35.117Z,51.87
2022-12-22T18:20:37.595Z,42.90
2022-12-22T18:23:41.087Z,44.80
2022-12-22T18:26:47.778Z,63.77
2022-12-22T18:29:49.542Z,60.57
2022-12-22T18:32:51.974Z,65.97
2022-12-22T18:35:54.355Z,53.90
2022-12-22T18:38:59.088Z,46.93
2022-12-22T18:42:00.874Z,42.00
2022-12-22T18:45:02.830Z,47.93
2022-12-22T18:48:04.515Z,47.13
2022-12-22T18:51:06.955Z,49.97
2022-12-22T18:54:31.242Z,70.30
2022-12-22T18:57:33.001Z,66.43
2022-12-22T19:00:36.187Z,57.70
2022-12-22T19:03:37.830Z,47.50
2022-12-22T19:06:39.515Z,43.23
2022-12-22T19:09:42.727Z,46.90
2022-12-22T19:12:45.539Z,41.53
2022-12-22T19:15:47.501Z,33.93
2022-12-22T19:18:49.138Z,38.07
2022-12-22T19:21:50.779Z,37.17
2022-12-22T19:24:57.403Z,42.70
2022-12-22T19:28:05.286Z,32.93
2022-12-22T19:31:07.649Z,38.00
2022-12-22T19:34:14.022Z,40.43
2022-12-22T19:37:15.831Z,54.33
2022-12-22T19:40:19.170Z,77.10
2022-12-22T19:43:21.147Z,67.83
2022-12-22T19:46:23.674Z,58.57
2022-12-22T19:49:27.265Z,60.37
2022-12-22T19:52:28.879Z,58.30
2022-12-22T19:55:32.593Z,56.53
2022-12-22T19:58:36.999Z,58.93
2022-12-22T20:01:38.816Z,59.57
2022-12-22T20:04:40.491Z,40.97
2022-12-22T20:07:42.114Z,61.30
2022-12-22T20:10:44.599Z,61.20
2022-12-22T20:13:46.907Z,68.90
2022-12-22T20:16:48.607Z,91.80
2022-12-22T20:19:50.526Z,130.73
2022-12-22T20:22:56.768Z,126.93
2022-12-22T20:26:01.495Z,99.80
2022-12-22T20:29:03.462Z,115.23
2022-12-22T20:32:05.210Z,82.00
2022-12-22T20:35:06.891Z,73.60
2022-12-22T20:38:12.909Z,61.63
2022-12-22T20:41:14.537Z,65.83
2022-12-22T20:44:16.224Z,61.97
2022-12-22T20:47:22.192Z,58.03
2022-12-22T20:50:25.907Z,60.70
2022-12-22T20:53:27.719Z,52.60
2022-12-22T20:56:31.073Z,54.27
2022-12-22T20:59:32.618Z,64.13
2022-12-22T21:02:34.503Z,50.03
2022-12-22T21:05:36.589Z,52.27
2022-12-22T21:08:38.156Z,55.43
2022-12-22T21:11:39.761Z,50.13
2022-12-22T21:14:41.353Z,57.13
2022-12-22T21:17:46.097Z,52.90
2022-12-22T21:20:48.904Z,47.70
2022-12-22T21:23:50.543Z,44.53
2022-12-22T21:26:53.211Z,44.47
2022-12-22T21:29:54.852Z,38.33
2022-12-22T21:32:56.602Z,39.67
2022-12-22T21:35:59.657Z,30.47
2022-12-22T21:39:03.535Z,34.73
2022-12-22T21:42:05.877Z,43.17
2022-12-22T21:45:11.362Z,35.10
2022-12-22T21:48:14.031Z,22.37
2022-12-22T21:51:15.751Z,34.87
2022-12-22T21:54:17.901Z,40.97
2022-12-22T21:57:19.671Z,46.63
2022-12-22T22:00:22.099Z,46.03
2022-12-22T22:03:23.900Z,34.13
2022-12-22T22:06:25.487Z,44.07
2022-12-22T22:09:27.094Z,41.13
2022-12-22T22:12:36.786Z,39.03
2022-12-22T22:15:38.548Z,35.40
2022-12-22T22:18:41.071Z,35.97
2022-12-22T22:21:42.683Z,42.47
2022-12-22T22:24:44.371Z,35.07
2022-12-22T22:27:48.104Z,26.30
2022-12-22T22:30:49.969Z,32.97
2022-12-22T22:33:51.679Z,36.27
2022-12-22T22:36:53.263Z,30.90
2022-12-22T22:39:54.952Z,37.00
2022-12-22T22:42:57.063Z,32.03
2022-12-22T22:45:58.740Z,20.60
2022-12-22T22:49:01.475Z,20.70
2022-12-22T22:52:03.294Z,23.03
2022-12-22T22:55:05.215Z,34.57
2022-12-22T22:58:06.923Z,32.93
2022-12-22T23:01:09.825Z,29.03
2022-12-22T23:04:11.775Z,36.77
2022-12-22T23:07:13.610Z,33.60
2022-12-22T23:10:15.379Z,37.60
2022-12-22T23:13:17.017Z,37.97
2022-12-22T23:16:21.464Z,35.90
2022-12-22T23:19:24.307Z,38.80
2022-12-22T23:22:25.932Z,41.23
2022-12-22T23:25:27.630Z,33.07
2022-12-22T23:28:29.270Z,31.70
2022-12-22T23:31:34.747Z,30.83
2022-12-22T23:34:36.481Z,20.50
2022-12-22T23:37:38.217Z,22.70
2022-12-22T23:40:55.949Z,17.03
2022-12-22T23:43:57.648Z,16.57
2022-12-22T23:46:59.221Z,15.40
2022-12-22T23:50:00.969Z,19.67
2022-12-22T23:53:02.761Z,11.87
2022-12-22T23:56:04.526Z,12.73
2022-12-22T23:59:06.319Z,12.70
